Flight Track Log - Related Links

Times and Time Zones

All times are in EDT time to prevent confusion due to time zone crossing. See the VRT51 flight status page for this flight to view local times or setup timezone preferences in your user account.

Time Position Orientation Groundspeed Altitude Reporting Facility
EDT Latitude Longitude Course Direction KTS MPH feet Rate Location/Type
Mon 10:03:29 AM 36.0050 -85.3864 122° Southeast 395 455 6,200  Level Atlanta Center
Mon 10:04:29 AM 35.9539 -85.2956 125° Southeast 356 410 9,200 2,550 Climbing Atlanta Center
Mon 10:05:29 AM 35.8986 -85.1950 124° Southeast 345 397 11,300 2,100 Climbing Atlanta Center
Mon 10:06:29 AM 35.8350 -85.0761 123° Southeast 377 434 13,400 2,550 Climbing Atlanta Center
Mon 10:07:00 AM 35.8171 -85.0823 119° Southeast  Level Estimated
Mon 10:07:29 AM 35.7692 -84.9550 124° Southeast 414 476 16,400  Level Atlanta Center
Mon 10:08:00 AM 35.7710 -84.9914 122° Southeast  Level FlightAware Approximate
Mon 10:08:29 AM 35.6969 -84.8289 125° Southeast 431 496 17,000  Level Atlanta Center
Mon 10:09:29 AM 35.6289 -84.7056 124° Southeast 438 504 17,000  Level Atlanta Center
Mon 10:10:29 AM 35.5606 -84.5800 124° Southeast 443 510 17,000  Level Atlanta Center
Mon 10:11:29 AM 35.4903 -84.4544 124° Southeast 443 510 17,000  Level Atlanta Center
Mon 10:12:29 AM 35.4197 -84.3292 125° Southeast 443 510 17,000  Level Atlanta Center
Mon 10:13:29 AM 35.3508 -84.2069 125° Southeast 443 510 17,000  Level Atlanta Center
Mon 10:14:29 AM 35.2800 -84.0819 125° Southeast 443 510 17,000  Level Atlanta Center
Mon 10:15:29 AM 35.2114 -83.9575 124° Southeast 443 510 17,000  Level Atlanta Center
Mon 10:16:29 AM 35.1403 -83.8331 125° Southeast 443 510 17,000 50 Level Atlanta Center
Mon 10:17:29 AM 35.0689 -83.7089 125° Southeast 448 516 17,100 50 Climbing Atlanta Center
Mon 10:18:29 AM 34.9997 -83.5875 125° Southeast 448 516 17,100 -400 Level Atlanta Center
Mon 10:19:29 AM 34.9386 -83.4789 124° Southeast 448 516 16,300 -1,100 Descending Atlanta Center
Mon 10:20:29 AM 34.8692 -83.3628 126° Southeast 434 499 14,900 -1,350 Descending Atlanta Center
Mon 10:21:29 AM 34.7975 -83.2319 124° Southeast 429 494 13,600 -1,400 Descending Atlanta Center
Mon 10:22:29 AM 34.7300 -83.1189 126° Southeast 434 499 12,100 -1,750 Descending Atlanta Center
Mon 10:23:29 AM 34.6769 -83.0233 124° Southeast 405 466 10,100 -1,700 Descending Atlanta Center
Mon 10:24:29 AM 34.6697 -82.9072 94° East 350 403 8,700 -1,700 Descending Atlanta Center
Mon 10:25:29 AM 34.6772 -82.8061 85° East 323 372 6,700 -2,000 Descending Atlanta Center
Mon 10:26:29 AM 34.6844 -82.7025 85° East 307 353 4,700 -1,800 Descending Atlanta Center
Mon 10:27:29 AM 34.6811 -82.6042 92° East 300 345 3,100 -900 Descending Atlanta Center
Mon 10:28:29 AM 34.6328 -82.5569 141° Southeast 257 296 2,900 -300 Descending Atlanta Center
Mon 10:29:29 AM 34.5872 -82.5931 213° Southwest 150 173 2,500 -200 Descending Atlanta Center
Mon 10:30:29 AM 34.5564 -82.6289 224° Southwest 144 166 2,500 -350 Level Atlanta Center
Mon 10:31:29 AM 34.5294 -82.6647 228° Southwest 139 160 1,800 -700 Descending Atlanta Center

Login

Don't have an account? Register now (free) for customized features, flight alerts, and more!